sensor_id;sensor_type;location;lat;lon;timestamp;temperature;humidity
43087;DHT22;28708;52.224;6.924;2023-04-25T00:02:03;7.40;99.90
43087;DHT22;28708;52.224;6.924;2023-04-25T00:04:29;7.30;99.90
43087;DHT22;28708;52.224;6.924;2023-04-25T00:06:55;7.40;99.90
43087;DHT22;28708;52.224;6.924;2023-04-25T00:09:21;7.40;99.90
43087;DHT22;28708;52.224;6.924;2023-04-25T00:11:47;7.30;99.90
43087;DHT22;28708;52.224;6.924;2023-04-25T00:14:13;7.30;99.90
43087;DHT22;28708;52.224;6.924;2023-04-25T00:16:39;7.30;99.90
43087;DHT22;28708;52.224;6.924;2023-04-25T00:19:07;7.30;99.90
43087;DHT22;28708;52.224;6.924;2023-04-25T00:21:33;7.30;99.90
43087;DHT22;28708;52.224;6.924;2023-04-25T00:23:59;7.40;99.90
43087;DHT22;28708;52.224;6.924;2023-04-25T00:26:25;7.40;99.90
43087;DHT22;28708;52.224;6.924;2023-04-25T00:28:51;7.40;99.90
43087;DHT22;28708;52.224;6.924;2023-04-25T00:31:17;7.40;99.90
43087;DHT22;28708;52.224;6.924;2023-04-25T00:33:42;7.30;99.90
43087;DHT22;28708;52.224;6.924;2023-04-25T00:36:08;7.30;99.90
43087;DHT22;28708;52.224;6.924;2023-04-25T00:38:35;7.20;99.90
43087;DHT22;28708;52.224;6.924;2023-04-25T00:41:01;7.20;99.90
43087;DHT22;28708;52.224;6.924;2023-04-25T00:43:27;7.20;99.90
43087;DHT22;28708;52.224;6.924;2023-04-25T00:45:53;7.20;99.90
43087;DHT22;28708;52.224;6.924;2023-04-25T00:48:21;7.10;99.90
43087;DHT22;28708;52.224;6.924;2023-04-25T00:50:55;7.20;99.90
43087;DHT22;28708;52.224;6.924;2023-04-25T00:53:26;7.10;99.90
43087;DHT22;28708;52.224;6.924;2023-04-25T00:55:52;7.00;99.90
43087;DHT22;28708;52.224;6.924;2023-04-25T00:58:20;7.00;99.90
43087;DHT22;28708;52.224;6.924;2023-04-25T01:00:46;7.00;99.90
43087;DHT22;28708;52.224;6.924;2023-04-25T01:03:14;7.10;99.90
43087;DHT22;28708;52.224;6.924;2023-04-25T01:05:41;7.00;99.90
43087;DHT22;28708;52.224;6.924;2023-04-25T01:08:07;7.10;99.90
43087;DHT22;28708;52.224;6.924;2023-04-25T01:10:33;7.00;99.90
43087;DHT22;28708;52.224;6.924;2023-04-25T01:12:59;7.00;99.90
43087;DHT22;28708;52.224;6.924;2023-04-25T01:15:25;7.00;99.90
43087;DHT22;28708;52.224;6.924;2023-04-25T01:17:51;7.00;99.90
43087;DHT22;28708;52.224;6.924;2023-04-25T01:20:21;7.00;99.90
43087;DHT22;28708;52.224;6.924;2023-04-25T01:22:47;7.00;99.90
43087;DHT22;28708;52.224;6.924;2023-04-25T01:25:14;7.00;99.90
43087;DHT22;28708;52.224;6.924;2023-04-25T01:27:40;6.90;99.90
43087;DHT22;28708;52.224;6.924;2023-04-25T01:30:06;6.90;99.90
43087;DHT22;28708;52.224;6.924;2023-04-25T01:32:33;6.90;99.90
43087;DHT22;28708;52.224;6.924;2023-04-25T01:35:06;6.90;99.90
43087;DHT22;28708;52.224;6.924;2023-04-25T01:37:37;6.90;99.90
43087;DHT22;28708;52.224;6.924;2023-04-25T01:40:04;6.90;99.90
43087;DHT22;28708;52.224;6.924;2023-04-25T01:42:32;6.90;99.90
43087;DHT22;28708;52.224;6.924;2023-04-25T01:44:57;6.90;99.90
43087;DHT22;28708;52.224;6.924;2023-04-25T01:47:23;6.90;99.90
43087;DHT22;28708;52.224;6.924;2023-04-25T01:49:49;6.90;99.90
43087;DHT22;28708;52.224;6.924;2023-04-25T01:52:15;6.80;99.90
43087;DHT22;28708;52.224;6.924;2023-04-25T01:54:41;6.90;99.90
43087;DHT22;28708;52.224;6.924;2023-04-25T01:57:10;6.90;99.90
43087;DHT22;28708;52.224;6.924;2023-04-25T01:59:38;7.00;99.90
43087;DHT22;28708;52.224;6.924;2023-04-25T02:02:26;6.90;99.90
43087;DHT22;28708;52.224;6.924;2023-04-25T02:04:52;6.80;99.90
43087;DHT22;28708;52.224;6.924;2023-04-25T02:07:21;6.90;99.90
43087;DHT22;28708;52.224;6.924;2023-04-25T02:09:50;6.90;99.90
43087;DHT22;28708;52.224;6.924;2023-04-25T02:12:17;6.80;99.90
43087;DHT22;28708;52.224;6.924;2023-04-25T02:15:01;6.80;99.90
43087;DHT22;28708;52.224;6.924;2023-04-25T02:17:40;6.70;99.90
43087;DHT22;28708;52.224;6.924;2023-04-25T02:20:06;6.70;99.90
43087;DHT22;28708;52.224;6.924;2023-04-25T02:22:32;6.80;99.90
43087;DHT22;28708;52.224;6.924;2023-04-25T02:24:59;6.80;99.90
43087;DHT22;28708;52.224;6.924;2023-04-25T02:27:25;6.70;99.90
43087;DHT22;28708;52.224;6.924;2023-04-25T02:29:50;6.60;99.90
43087;DHT22;28708;52.224;6.924;2023-04-25T02:32:16;6.60;99.90
43087;DHT22;28708;52.224;6.924;2023-04-25T02:34:42;6.60;99.90
43087;DHT22;28708;52.224;6.924;2023-04-25T02:37:07;6.70;99.90
43087;DHT22;28708;52.224;6.924;2023-04-25T02:39:33;6.80;99.90
43087;DHT22;28708;52.224;6.924;2023-04-25T02:41:58;6.80;99.90
43087;DHT22;28708;52.224;6.924;2023-04-25T02:44:24;6.70;99.90
43087;DHT22;28708;52.224;6.924;2023-04-25T02:46:50;6.70;99.90
43087;DHT22;28708;52.224;6.924;2023-04-25T02:49:15;6.70;99.90
43087;DHT22;28708;52.224;6.924;2023-04-25T02:51:41;6.80;99.90
43087;DHT22;28708;52.224;6.924;2023-04-25T02:54:07;6.70;99.90
43087;DHT22;28708;52.224;6.924;2023-04-25T02:56:37;6.50;99.90
43087;DHT22;28708;52.224;6.924;2023-04-25T02:59:05;6.40;99.90
43087;DHT22;28708;52.224;6.924;2023-04-25T03:01:32;6.50;99.90
43087;DHT22;28708;52.224;6.924;2023-04-25T03:03:57;6.40;99.90
43087;DHT22;28708;52.224;6.924;2023-04-25T03:06:23;6.50;99.90
43087;DHT22;28708;52.224;6.924;2023-04-25T03:08:49;6.50;99.90
43087;DHT22;28708;52.224;6.924;2023-04-25T03:11:15;6.50;99.90
43087;DHT22;28708;52.224;6.924;2023-04-25T03:13:41;6.50;99.90
43087;DHT22;28708;52.224;6.924;2023-04-25T03:16:08;6.40;99.90
43087;DHT22;28708;52.224;6.924;2023-04-25T03:18:34;6.30;99.90
43087;DHT22;28708;52.224;6.924;2023-04-25T03:20:59;6.40;99.90
43087;DHT22;28708;52.224;6.924;2023-04-25T03:23:25;6.30;99.90
43087;DHT22;28708;52.224;6.924;2023-04-25T03:25:51;6.40;99.90
43087;DHT22;28708;52.224;6.924;2023-04-25T03:28:17;6.40;99.90
43087;DHT22;28708;52.224;6.924;2023-04-25T03:30:42;6.40;99.90
43087;DHT22;28708;52.224;6.924;2023-04-25T03:33:09;6.40;99.90
43087;DHT22;28708;52.224;6.924;2023-04-25T03:35:34;6.40;99.90
43087;DHT22;28708;52.224;6.924;2023-04-25T03:38:00;6.30;99.90
43087;DHT22;28708;52.224;6.924;2023-04-25T03:40:30;6.30;99.90
43087;DHT22;28708;52.224;6.924;2023-04-25T03:43:15;6.30;99.90
43087;DHT22;28708;52.224;6.924;2023-04-25T03:45:47;6.40;99.90
43087;DHT22;28708;52.224;6.924;2023-04-25T03:48:12;6.40;99.90
43087;DHT22;28708;52.224;6.924;2023-04-25T03:50:38;6.30;99.90
43087;DHT22;28708;52.224;6.924;2023-04-25T03:53:04;6.30;99.90
43087;DHT22;28708;52.224;6.924;2023-04-25T03:55:41;6.30;99.90
43087;DHT22;28708;52.224;6.924;2023-04-25T03:58:07;6.30;99.90
43087;DHT22;28708;52.224;6.924;2023-04-25T04:00:34;6.30;99.90
43087;DHT22;28708;52.224;6.924;2023-04-25T04:03:01;6.30;99.90
43087;DHT22;28708;52.224;6.924;2023-04-25T04:05:26;6.20;99.90
43087;DHT22;28708;52.224;6.924;2023-04-25T04:07:55;6.20;99.90
43087;DHT22;28708;52.224;6.924;2023-04-25T04:10:22;6.20;99.90
43087;DHT22;28708;52.224;6.924;2023-04-25T04:12:48;6.20;99.90
43087;DHT22;28708;52.224;6.924;2023-04-25T04:15:14;6.30;99.90
43087;DHT22;28708;52.224;6.924;2023-04-25T04:17:42;6.30;99.90
43087;DHT22;28708;52.224;6.924;2023-04-25T04:20:08;6.10;99.90
43087;DHT22;28708;52.224;6.924;2023-04-25T04:22:34;6.20;99.90
43087;DHT22;28708;52.224;6.924;2023-04-25T04:25:05;6.20;99.90
43087;DHT22;28708;52.224;6.924;2023-04-25T04:27:50;6.20;99.90
43087;DHT22;28708;52.224;6.924;2023-04-25T04:30:42;6.20;99.90
43087;DHT22;28708;52.224;6.924;2023-04-25T04:33:12;6.30;99.90
43087;DHT22;28708;52.224;6.924;2023-04-25T04:35:41;6.30;99.90
43087;DHT22;28708;52.224;6.924;2023-04-25T04:38:07;6.30;99.90
43087;DHT22;28708;52.224;6.924;2023-04-25T04:40:35;6.40;99.90
43087;DHT22;28708;52.224;6.924;2023-04-25T04:43:11;6.20;99.90
43087;DHT22;28708;52.224;6.924;2023-04-25T04:45:55;6.30;99.90
43087;DHT22;28708;52.224;6.924;2023-04-25T04:48:52;6.30;99.90
43087;DHT22;28708;52.224;6.924;2023-04-25T04:51:41;6.30;99.90
43087;DHT22;28708;52.224;6.924;2023-04-25T04:54:27;6.20;99.90
43087;DHT22;28708;52.224;6.924;2023-04-25T04:57:06;6.30;99.90
43087;DHT22;28708;52.224;6.924;2023-04-25T04:59:56;6.30;99.90
43087;DHT22;28708;52.224;6.924;2023-04-25T05:02:40;6.30;99.90
43087;DHT22;28708;52.224;6.924;2023-04-25T05:05:27;6.20;99.90
43087;DHT22;28708;52.224;6.924;2023-04-25T05:08:08;6.30;99.90
43087;DHT22;28708;52.224;6.924;2023-04-25T05:10:43;6.50;99.90
43087;DHT22;28708;52.224;6.924;2023-04-25T05:13:47;6.50;99.90
43087;DHT22;28708;52.224;6.924;2023-04-25T05:16:25;6.40;99.90
43087;DHT22;28708;52.224;6.924;2023-04-25T05:19:17;6.40;99.90
43087;DHT22;28708;52.224;6.924;2023-04-25T05:22:06;6.40;99.90
43087;DHT22;28708;52.224;6.924;2023-04-25T05:24:43;6.50;99.90
43087;DHT22;28708;52.224;6.924;2023-04-25T05:27:26;6.40;99.90
43087;DHT22;28708;52.224;6.924;2023-04-25T05:30:01;6.50;99.90
43087;DHT22;28708;52.224;6.924;2023-04-25T05:32:44;6.40;99.90
43087;DHT22;28708;52.224;6.924;2023-04-25T05:35:10;6.40;99.90
43087;DHT22;28708;52.224;6.924;2023-04-25T05:37:46;6.40;99.90
43087;DHT22;28708;52.224;6.924;2023-04-25T05:40:13;6.50;99.90
43087;DHT22;28708;52.224;6.924;2023-04-25T05:43:09;6.40;99.90
43087;DHT22;28708;52.224;6.924;2023-04-25T05:45:46;6.50;99.90
43087;DHT22;28708;52.224;6.924;2023-04-25T05:48:30;6.50;99.90
43087;DHT22;28708;52.224;6.924;2023-04-25T05:51:16;6.60;99.90
43087;DHT22;28708;52.224;6.924;2023-04-25T05:54:04;6.80;99.90
43087;DHT22;28708;52.224;6.924;2023-04-25T05:56:31;6.60;99.90
43087;DHT22;28708;52.224;6.924;2023-04-25T05:58:56;6.70;99.90
43087;DHT22;28708;52.224;6.924;2023-04-25T06:01:23;6.80;99.90
43087;DHT22;28708;52.224;6.924;2023-04-25T06:03:49;6.70;99.90
43087;DHT22;28708;52.224;6.924;2023-04-25T06:06:16;6.70;99.90
43087;DHT22;28708;52.224;6.924;2023-04-25T06:08:42;6.70;99.90
43087;DHT22;28708;52.224;6.924;2023-04-25T06:11:10;6.60;99.90
43087;DHT22;28708;52.224;6.924;2023-04-25T06:13:36;6.60;99.90
43087;DHT22;28708;52.224;6.924;2023-04-25T06:16:03;6.70;99.90
43087;DHT22;28708;52.224;6.924;2023-04-25T06:18:28;6.80;99.90
43087;DHT22;28708;52.224;6.924;2023-04-25T06:20:54;7.00;99.90
43087;DHT22;28708;52.224;6.924;2023-04-25T06:23:21;6.80;99.90
43087;DHT22;28708;52.224;6.924;2023-04-25T06:26:10;6.90;99.90
43087;DHT22;28708;52.224;6.924;2023-04-25T06:28:38;6.90;99.90
43087;DHT22;28708;52.224;6.924;2023-04-25T06:31:04;6.80;99.90
43087;DHT22;28708;52.224;6.924;2023-04-25T06:33:30;6.90;99.90
43087;DHT22;28708;52.224;6.924;2023-04-25T06:35:56;7.00;99.90
43087;DHT22;28708;52.224;6.924;2023-04-25T06:38:25;7.00;99.90
43087;DHT22;28708;52.224;6.924;2023-04-25T06:40:52;7.00;99.90
43087;DHT22;28708;52.224;6.924;2023-04-25T06:43:24;7.00;99.90
43087;DHT22;28708;52.224;6.924;2023-04-25T06:46:19;7.00;99.90
43087;DHT22;28708;52.224;6.924;2023-04-25T06:48:46;7.20;99.90
43087;DHT22;28708;52.224;6.924;2023-04-25T06:51:12;7.40;99.90
43087;DHT22;28708;52.224;6.924;2023-04-25T06:53:39;7.50;99.90
43087;DHT22;28708;52.224;6.924;2023-04-25T06:56:07;7.70;99.90
43087;DHT22;28708;52.224;6.924;2023-04-25T06:58:56;7.50;99.90
43087;DHT22;28708;52.224;6.924;2023-04-25T07:01:29;7.70;99.90
43087;DHT22;28708;52.224;6.924;2023-04-25T07:03:56;7.80;99.90
43087;DHT22;28708;52.224;6.924;2023-04-25T07:06:22;7.60;99.90
43087;DHT22;28708;52.224;6.924;2023-04-25T07:08:48;7.70;99.90
43087;DHT22;28708;52.224;6.924;2023-04-25T07:11:14;7.50;99.90
43087;DHT22;28708;52.224;6.924;2023-04-25T07:13:40;7.50;99.90
43087;DHT22;28708;52.224;6.924;2023-04-25T07:16:06;7.60;99.90
43087;DHT22;28708;52.224;6.924;2023-04-25T07:18:33;7.80;99.90
43087;DHT22;28708;52.224;6.924;2023-04-25T07:20:59;7.90;99.90
43087;DHT22;28708;52.224;6.924;2023-04-25T07:23:27;7.80;99.90
43087;DHT22;28708;52.224;6.924;2023-04-25T07:25:53;8.00;99.90
43087;DHT22;28708;52.224;6.924;2023-04-25T07:28:21;8.00;99.90
43087;DHT22;28708;52.224;6.924;2023-04-25T07:30:47;7.90;99.90
43087;DHT22;28708;52.224;6.924;2023-04-25T07:33:13;7.90;99.90
43087;DHT22;28708;52.224;6.924;2023-04-25T07:35:39;8.00;99.90
43087;DHT22;28708;52.224;6.924;2023-04-25T07:38:05;7.90;99.90
43087;DHT22;28708;52.224;6.924;2023-04-25T07:40:32;7.90;99.90
43087;DHT22;28708;52.224;6.924;2023-04-25T07:43:04;7.80;99.90
43087;DHT22;28708;52.224;6.924;2023-04-25T07:45:39;7.90;99.90
43087;DHT22;28708;52.224;6.924;2023-04-25T07:48:05;8.00;99.90
43087;DHT22;28708;52.224;6.924;2023-04-25T07:50:34;7.90;99.90
43087;DHT22;28708;52.224;6.924;2023-04-25T07:53:00;8.10;99.90
43087;DHT22;28708;52.224;6.924;2023-04-25T07:55:31;8.30;99.90
43087;DHT22;28708;52.224;6.924;2023-04-25T07:58:03;8.30;99.90
43087;DHT22;28708;52.224;6.924;2023-04-25T08:00:30;8.40;99.90
43087;DHT22;28708;52.224;6.924;2023-04-25T08:03:16;8.80;99.90
43087;DHT22;28708;52.224;6.924;2023-04-25T08:05:42;9.10;99.90
43087;DHT22;28708;52.224;6.924;2023-04-25T08:08:08;8.90;99.90
43087;DHT22;28708;52.224;6.924;2023-04-25T08:10:34;8.90;99.90
43087;DHT22;28708;52.224;6.924;2023-04-25T08:13:00;9.00;99.90
43087;DHT22;28708;52.224;6.924;2023-04-25T08:15:26;9.20;99.90
43087;DHT22;28708;52.224;6.924;2023-04-25T08:17:52;9.40;99.90
43087;DHT22;28708;52.224;6.924;2023-04-25T08:20:18;9.20;99.90
43087;DHT22;28708;52.224;6.924;2023-04-25T08:22:44;8.90;99.90
43087;DHT22;28708;52.224;6.924;2023-04-25T08:25:33;8.90;99.90
43087;DHT22;28708;52.224;6.924;2023-04-25T08:27:59;8.80;99.90
43087;DHT22;28708;52.224;6.924;2023-04-25T08:30:29;8.80;99.90
43087;DHT22;28708;52.224;6.924;2023-04-25T08:32:54;9.20;99.90
43087;DHT22;28708;52.224;6.924;2023-04-25T08:35:44;9.50;99.90
43087;DHT22;28708;52.224;6.924;2023-04-25T08:38:11;9.50;99.90
43087;DHT22;28708;52.224;6.924;2023-04-25T08:40:38;9.30;99.90
43087;DHT22;28708;52.224;6.924;2023-04-25T08:43:09;9.40;99.90
43087;DHT22;28708;52.224;6.924;2023-04-25T08:45:40;9.40;99.90
43087;DHT22;28708;52.224;6.924;2023-04-25T08:48:14;9.60;99.90
43087;DHT22;28708;52.224;6.924;2023-04-25T08:50:50;9.70;99.90
43087;DHT22;28708;52.224;6.924;2023-04-25T08:53:25;10.10;99.90
43087;DHT22;28708;52.224;6.924;2023-04-25T08:55:51;10.30;99.90
43087;DHT22;28708;52.224;6.924;2023-04-25T08:58:19;10.20;99.90
43087;DHT22;28708;52.224;6.924;2023-04-25T09:00:46;10.00;99.90
43087;DHT22;28708;52.224;6.924;2023-04-25T09:03:12;10.00;99.90
43087;DHT22;28708;52.224;6.924;2023-04-25T09:05:40;10.20;99.90
43087;DHT22;28708;52.224;6.924;2023-04-25T09:08:07;10.20;99.90
43087;DHT22;28708;52.224;6.924;2023-04-25T09:10:33;10.20;99.90
43087;DHT22;28708;52.224;6.924;2023-04-25T09:13:10;10.50;99.90
43087;DHT22;28708;52.224;6.924;2023-04-25T09:15:58;10.20;99.90
43087;DHT22;28708;52.224;6.924;2023-04-25T09:18:48;10.10;99.90
43087;DHT22;28708;52.224;6.924;2023-04-25T09:21:15;10.40;99.90
43087;DHT22;28708;52.224;6.924;2023-04-25T09:23:48;10.60;99.90
43087;DHT22;28708;52.224;6.924;2023-04-25T09:26:16;10.70;99.90
43087;DHT22;28708;52.224;6.924;2023-04-25T09:28:43;10.50;99.90
43087;DHT22;28708;52.224;6.924;2023-04-25T09:31:12;10.70;99.90
43087;DHT22;28708;52.224;6.924;2023-04-25T09:33:46;10.80;99.90
43087;DHT22;28708;52.224;6.924;2023-04-25T09:36:12;10.20;99.90
43087;DHT22;28708;52.224;6.924;2023-04-25T09:38:59;9.80;99.90
43087;DHT22;28708;52.224;6.924;2023-04-25T09:41:31;11.60;99.90
43087;DHT22;28708;52.224;6.924;2023-04-25T09:44:00;13.50;99.90
43087;DHT22;28708;52.224;6.924;2023-04-25T09:46:35;14.70;99.90
43087;DHT22;28708;52.224;6.924;2023-04-25T09:49:07;14.80;99.90
43087;DHT22;28708;52.224;6.924;2023-04-25T09:51:57;13.60;99.90
43087;DHT22;28708;52.224;6.924;2023-04-25T09:54:24;12.60;99.90
43087;DHT22;28708;52.224;6.924;2023-04-25T09:57:07;12.20;99.90
43087;DHT22;28708;52.224;6.924;2023-04-25T09:59:39;11.90;99.90
43087;DHT22;28708;52.224;6.924;2023-04-25T10:02:08;10.90;99.90
43087;DHT22;28708;52.224;6.924;2023-04-25T10:04:37;9.70;99.90
43087;DHT22;28708;52.224;6.924;2023-04-25T10:07:08;9.10;99.90
43087;DHT22;28708;52.224;6.924;2023-04-25T10:09:37;8.50;99.90
43087;DHT22;28708;52.224;6.924;2023-04-25T10:12:05;7.90;99.90
43087;DHT22;28708;52.224;6.924;2023-04-25T10:14:31;7.70;99.90
43087;DHT22;28708;52.224;6.924;2023-04-25T10:16:58;7.90;99.90
43087;DHT22;28708;52.224;6.924;2023-04-25T10:19:25;8.20;99.90
43087;DHT22;28708;52.224;6.924;2023-04-25T10:24:35;9.30;99.90
43087;DHT22;28708;52.224;6.924;2023-04-25T10:27:02;11.70;99.90
43087;DHT22;28708;52.224;6.924;2023-04-25T10:29:28;11.70;99.90
43087;DHT22;28708;52.224;6.924;2023-04-25T10:31:54;11.60;99.90
43087;DHT22;28708;52.224;6.924;2023-04-25T10:34:24;10.90;99.90
43087;DHT22;28708;52.224;6.924;2023-04-25T10:36:52;10.20;99.90
43087;DHT22;28708;52.224;6.924;2023-04-25T10:39:22;9.90;99.90
43087;DHT22;28708;52.224;6.924;2023-04-25T10:41:55;10.00;99.90
43087;DHT22;28708;52.224;6.924;2023-04-25T10:44:21;10.80;99.90
43087;DHT22;28708;52.224;6.924;2023-04-25T10:46:47;13.30;99.90
43087;DHT22;28708;52.224;6.924;2023-04-25T10:49:38;15.30;99.90
43087;DHT22;28708;52.224;6.924;2023-04-25T11:02:47;14.90;99.90
43087;DHT22;28708;52.224;6.924;2023-04-25T11:05:33;13.80;99.90
43087;DHT22;28708;52.224;6.924;2023-04-25T11:08:00;13.30;99.90
43087;DHT22;28708;52.224;6.924;2023-04-25T11:10:31;13.20;99.90
43087;DHT22;28708;52.224;6.924;2023-04-25T11:13:00;14.00;99.90
43087;DHT22;28708;52.224;6.924;2023-04-25T11:15:26;12.80;99.90
43087;DHT22;28708;52.224;6.924;2023-04-25T11:17:53;14.20;99.90
43087;DHT22;28708;52.224;6.924;2023-04-25T11:20:19;14.80;99.90
43087;DHT22;28708;52.224;6.924;2023-04-25T11:22:46;14.40;98.90
43087;DHT22;28708;52.224;6.924;2023-04-25T11:25:13;13.40;99.90
43087;DHT22;28708;52.224;6.924;2023-04-25T11:27:57;12.00;99.90
43087;DHT22;28708;52.224;6.924;2023-04-25T11:30:24;10.90;99.90
43087;DHT22;28708;52.224;6.924;2023-04-25T11:32:51;10.70;99.90
43087;DHT22;28708;52.224;6.924;2023-04-25T11:35:21;11.00;99.90
43087;DHT22;28708;52.224;6.924;2023-04-25T11:37:48;11.00;99.90
43087;DHT22;28708;52.224;6.924;2023-04-25T11:40:15;10.90;99.90
43087;DHT22;28708;52.224;6.924;2023-04-25T11:42:46;10.70;99.90
43087;DHT22;28708;52.224;6.924;2023-04-25T11:45:12;10.70;99.90
43087;DHT22;28708;52.224;6.924;2023-04-25T11:47:37;10.70;99.90
43087;DHT22;28708;52.224;6.924;2023-04-25T11:50:05;10.70;99.90
43087;DHT22;28708;52.224;6.924;2023-04-25T11:52:43;10.80;99.90
43087;DHT22;28708;52.224;6.924;2023-04-25T11:55:17;10.90;99.90
43087;DHT22;28708;52.224;6.924;2023-04-25T11:57:44;11.10;99.90
43087;DHT22;28708;52.224;6.924;2023-04-25T12:00:13;11.40;99.90
43087;DHT22;28708;52.224;6.924;2023-04-25T12:02:53;11.00;99.90
43087;DHT22;28708;52.224;6.924;2023-04-25T12:05:20;10.80;99.90
43087;DHT22;28708;52.224;6.924;2023-04-25T12:07:46;11.10;99.90
43087;DHT22;28708;52.224;6.924;2023-04-25T12:10:14;11.70;99.90
43087;DHT22;28708;52.224;6.924;2023-04-25T12:12:45;12.10;99.90
43087;DHT22;28708;52.224;6.924;2023-04-25T12:15:16;11.40;99.90
43087;DHT22;28708;52.224;6.924;2023-04-25T12:17:49;10.60;99.90
43087;DHT22;28708;52.224;6.924;2023-04-25T12:20:20;10.20;99.90
43087;DHT22;28708;52.224;6.924;2023-04-25T12:22:47;10.20;99.90
43087;DHT22;28708;52.224;6.924;2023-04-25T12:25:42;10.40;99.90
43087;DHT22;28708;52.224;6.924;2023-04-25T12:28:22;10.50;99.90
43087;DHT22;28708;52.224;6.924;2023-04-25T12:33:27;10.70;99.90
43087;DHT22;28708;52.224;6.924;2023-04-25T12:35:54;10.80;99.90
43087;DHT22;28708;52.224;6.924;2023-04-25T12:38:30;11.30;99.90
43087;DHT22;28708;52.224;6.924;2023-04-25T12:41:00;11.80;99.90
43087;DHT22;28708;52.224;6.924;2023-04-25T12:43:26;11.90;99.90
43087;DHT22;28708;52.224;6.924;2023-04-25T12:45:55;12.00;99.90
43087;DHT22;28708;52.224;6.924;2023-04-25T12:48:22;12.00;99.90
43087;DHT22;28708;52.224;6.924;2023-04-25T12:50:48;11.90;99.90
43087;DHT22;28708;52.224;6.924;2023-04-25T12:53:22;11.40;99.90
43087;DHT22;28708;52.224;6.924;2023-04-25T12:55:50;11.20;99.90
43087;DHT22;28708;52.224;6.924;2023-04-25T12:58:17;11.10;99.90
43087;DHT22;28708;52.224;6.924;2023-04-25T13:00:43;11.30;99.90
43087;DHT22;28708;52.224;6.924;2023-04-25T13:03:10;11.40;99.90
43087;DHT22;28708;52.224;6.924;2023-04-25T13:05:36;11.30;99.90
43087;DHT22;28708;52.224;6.924;2023-04-25T13:08:02;11.30;99.90
43087;DHT22;28708;52.224;6.924;2023-04-25T13:10:28;11.10;99.90
43087;DHT22;28708;52.224;6.924;2023-04-25T13:12:53;11.00;99.90
43087;DHT22;28708;52.224;6.924;2023-04-25T13:15:20;10.70;99.90
43087;DHT22;28708;52.224;6.924;2023-04-25T13:17:47;10.40;99.90
43087;DHT22;28708;52.224;6.924;2023-04-25T13:20:13;10.40;99.90
43087;DHT22;28708;52.224;6.924;2023-04-25T13:22:40;10.80;99.90
43087;DHT22;28708;52.224;6.924;2023-04-25T13:25:07;11.20;99.90
43087;DHT22;28708;52.224;6.924;2023-04-25T13:27:34;11.20;99.90
43087;DHT22;28708;52.224;6.924;2023-04-25T13:30:03;11.10;99.90
43087;DHT22;28708;52.224;6.924;2023-04-25T13:32:36;11.30;99.90
43087;DHT22;28708;52.224;6.924;2023-04-25T13:35:11;11.30;99.90
43087;DHT22;28708;52.224;6.924;2023-04-25T13:37:37;11.40;99.90
43087;DHT22;28708;52.224;6.924;2023-04-25T13:40:05;11.70;99.90
43087;DHT22;28708;52.224;6.924;2023-04-25T13:42:31;11.70;99.90
43087;DHT22;28708;52.224;6.924;2023-04-25T13:44:57;11.60;99.90
43087;DHT22;28708;52.224;6.924;2023-04-25T13:47:23;11.70;99.90
43087;DHT22;28708;52.224;6.924;2023-04-25T13:49:50;11.60;99.90
43087;DHT22;28708;52.224;6.924;2023-04-25T13:52:16;11.50;99.90
43087;DHT22;28708;52.224;6.924;2023-04-25T13:54:41;11.90;99.90
43087;DHT22;28708;52.224;6.924;2023-04-25T13:57:07;11.80;99.90
43087;DHT22;28708;52.224;6.924;2023-04-25T13:59:33;11.60;99.90
43087;DHT22;28708;52.224;6.924;2023-04-25T14:01:58;11.40;99.90
43087;DHT22;28708;52.224;6.924;2023-04-25T14:04:24;11.40;99.90
43087;DHT22;28708;52.224;6.924;2023-04-25T14:06:50;11.30;99.90
43087;DHT22;28708;52.224;6.924;2023-04-25T14:09:17;11.30;99.90
43087;DHT22;28708;52.224;6.924;2023-04-25T14:11:43;11.10;99.90
43087;DHT22;28708;52.224;6.924;2023-04-25T14:14:08;11.30;99.90
43087;DHT22;28708;52.224;6.924;2023-04-25T14:16:34;11.80;99.90
43087;DHT22;28708;52.224;6.924;2023-04-25T14:19:00;11.90;99.90
43087;DHT22;28708;52.224;6.924;2023-04-25T14:21:27;12.10;99.90
43087;DHT22;28708;52.224;6.924;2023-04-25T14:23:53;12.20;99.90
43087;DHT22;28708;52.224;6.924;2023-04-25T14:26:19;11.80;99.90
43087;DHT22;28708;52.224;6.924;2023-04-25T14:28:45;12.10;99.90
43087;DHT22;28708;52.224;6.924;2023-04-25T14:31:11;11.90;99.90
43087;DHT22;28708;52.224;6.924;2023-04-25T14:33:36;11.90;99.90
43087;DHT22;28708;52.224;6.924;2023-04-25T14:36:05;11.90;99.90
43087;DHT22;28708;52.224;6.924;2023-04-25T14:38:31;11.70;99.90
43087;DHT22;28708;52.224;6.924;2023-04-25T14:40:56;11.70;99.90
43087;DHT22;28708;52.224;6.924;2023-04-25T14:43:22;11.80;99.90
43087;DHT22;28708;52.224;6.924;2023-04-25T14:45:48;11.80;99.90
43087;DHT22;28708;52.224;6.924;2023-04-25T14:48:13;11.90;99.90
43087;DHT22;28708;52.224;6.924;2023-04-25T14:50:40;11.80;99.90
43087;DHT22;28708;52.224;6.924;2023-04-25T14:53:05;11.90;99.90
43087;DHT22;28708;52.224;6.924;2023-04-25T14:55:31;12.20;99.90
43087;DHT22;28708;52.224;6.924;2023-04-25T14:57:57;12.40;99.90
43087;DHT22;28708;52.224;6.924;2023-04-25T15:00:22;12.50;98.70
43087;DHT22;28708;52.224;6.924;2023-04-25T15:02:49;12.30;98.00
43087;DHT22;28708;52.224;6.924;2023-04-25T15:05:14;11.90;97.00
43087;DHT22;28708;52.224;6.924;2023-04-25T15:07:40;11.60;98.20
43087;DHT22;28708;52.224;6.924;2023-04-25T15:10:07;11.40;99.60
43087;DHT22;28708;52.224;6.924;2023-04-25T15:12:39;11.00;99.90
43087;DHT22;28708;52.224;6.924;2023-04-25T15:15:05;10.50;99.90
43087;DHT22;28708;52.224;6.924;2023-04-25T15:17:31;10.10;99.90
43087;DHT22;28708;52.224;6.924;2023-04-25T15:19:57;9.70;99.90
43087;DHT22;28708;52.224;6.924;2023-04-25T15:22:23;9.50;99.90
43087;DHT22;28708;52.224;6.924;2023-04-25T15:24:48;8.90;99.90
43087;DHT22;28708;52.224;6.924;2023-04-25T15:27:14;8.50;99.90
43087;DHT22;28708;52.224;6.924;2023-04-25T15:29:39;8.40;99.90
43087;DHT22;28708;52.224;6.924;2023-04-25T15:32:05;8.30;99.90
43087;DHT22;28708;52.224;6.924;2023-04-25T15:34:31;8.20;99.90
43087;DHT22;28708;52.224;6.924;2023-04-25T15:36:57;8.30;99.90
43087;DHT22;28708;52.224;6.924;2023-04-25T15:39:23;8.40;99.90
43087;DHT22;28708;52.224;6.924;2023-04-25T15:41:49;8.70;99.90
43087;DHT22;28708;52.224;6.924;2023-04-25T15:44:14;9.10;99.90
43087;DHT22;28708;52.224;6.924;2023-04-25T15:46:40;9.40;99.90
43087;DHT22;28708;52.224;6.924;2023-04-25T15:49:05;9.40;99.90
43087;DHT22;28708;52.224;6.924;2023-04-25T15:51:31;9.50;99.90
43087;DHT22;28708;52.224;6.924;2023-04-25T15:53:58;9.70;99.90
43087;DHT22;28708;52.224;6.924;2023-04-25T15:56:23;10.00;99.90
43087;DHT22;28708;52.224;6.924;2023-04-25T15:58:49;10.20;99.90
43087;DHT22;28708;52.224;6.924;2023-04-25T16:01:15;10.20;99.90
43087;DHT22;28708;52.224;6.924;2023-04-25T16:03:41;10.00;99.90
43087;DHT22;28708;52.224;6.924;2023-04-25T16:06:07;9.70;99.90
43087;DHT22;28708;52.224;6.924;2023-04-25T16:08:32;9.70;99.90
43087;DHT22;28708;52.224;6.924;2023-04-25T16:11:01;9.70;99.90